sensor_id;sensor_type;location;lat;lon;timestamp;pressure;altitude;pressure_sealevel;temperature;humidity
58467;BME280;44255;49.244;7.726;2023-04-01T00:01:00;96871.25;;;1.87;80.35
58467;BME280;44255;49.244;7.726;2023-04-01T00:03:26;96870.78;;;1.64;81.03
58467;BME280;44255;49.244;7.726;2023-04-01T00:05:53;96862.81;;;1.64;81.35
58467;BME280;44255;49.244;7.726;2023-04-01T00:08:18;96856.00;;;1.74;81.00
58467;BME280;44255;49.244;7.726;2023-04-01T00:10:43;96870.91;;;1.77;81.27
58467;BME280;44255;49.244;7.726;2023-04-01T00:13:09;96864.41;;;1.82;80.30
58467;BME280;44255;49.244;7.726;2023-04-01T00:15:34;96853.19;;;1.77;80.25
58467;BME280;44255;49.244;7.726;2023-04-01T00:18:00;96856.19;;;1.71;80.34
58467;BME280;44255;49.244;7.726;2023-04-01T00:20:26;96856.78;;;1.76;79.69
58467;BME280;44255;49.244;7.726;2023-04-01T00:22:51;96853.03;;;1.64;80.68
58467;BME280;44255;49.244;7.726;2023-04-01T00:25:16;96852.56;;;1.72;80.31
58467;BME280;44255;49.244;7.726;2023-04-01T00:27:42;96867.94;;;1.67;80.08
58467;BME280;44255;49.244;7.726;2023-04-01T00:30:08;96848.13;;;1.73;80.50
58467;BME280;44255;49.244;7.726;2023-04-01T00:32:34;96849.59;;;1.62;81.00
58467;BME280;44255;49.244;7.726;2023-04-01T00:34:59;96849.19;;;1.54;81.21
58467;BME280;44255;49.244;7.726;2023-04-01T00:37:26;96851.25;;;1.65;80.44
58467;BME280;44255;49.244;7.726;2023-04-01T00:39:52;96861.28;;;1.60;80.04
58467;BME280;44255;49.244;7.726;2023-04-01T00:42:17;96859.28;;;1.63;79.77
58467;BME280;44255;49.244;7.726;2023-04-01T00:44:46;96858.78;;;1.57;80.26
58467;BME280;44255;49.244;7.726;2023-04-01T00:47:13;96863.31;;;1.71;79.42
58467;BME280;44255;49.244;7.726;2023-04-01T00:49:40;96877.88;;;1.79;78.92
58467;BME280;44255;49.244;7.726;2023-04-01T00:52:08;96858.25;;;1.66;79.70
58467;BME280;44255;49.244;7.726;2023-04-01T00:54:36;96844.53;;;1.74;80.18
58467;BME280;44255;49.244;7.726;2023-04-01T00:57:07;96849.53;;;1.64;79.41
58467;BME280;44255;49.244;7.726;2023-04-01T00:59:40;96851.88;;;1.85;78.80
58467;BME280;44255;49.244;7.726;2023-04-01T01:02:08;96837.69;;;1.70;79.58
58467;BME280;44255;49.244;7.726;2023-04-01T01:04:35;96861.84;;;1.65;79.82
58467;BME280;44255;49.244;7.726;2023-04-01T01:12:07;96853.13;;;1.63;79.94
58467;BME280;44255;49.244;7.726;2023-04-01T01:20:06;96847.38;;;1.71;79.04
58467;BME280;44255;49.244;7.726;2023-04-01T01:22:51;96846.38;;;1.88;78.94
58467;BME280;44255;49.244;7.726;2023-04-01T01:36:32;96852.09;;;1.49;81.56
58467;BME280;44255;49.244;7.726;2023-04-01T01:39:05;96836.75;;;1.54;81.88
58467;BME280;44255;49.244;7.726;2023-04-01T01:41:33;96835.31;;;1.65;81.44
58467;BME280;44255;49.244;7.726;2023-04-01T01:44:02;96848.34;;;3.45;84.63
58467;BME280;44255;49.244;7.726;2023-04-01T01:46:28;96827.53;;;2.95;78.15
58467;BME280;44255;49.244;7.726;2023-04-01T01:48:56;96833.84;;;2.80;79.91
58467;BME280;44255;49.244;7.726;2023-04-01T01:51:22;96832.41;;;2.15;84.07
58467;BME280;44255;49.244;7.726;2023-04-01T01:53:48;96841.59;;;2.09;87.81
58467;BME280;44255;49.244;7.726;2023-04-01T01:56:13;96834.41;;;2.11;87.49
58467;BME280;44255;49.244;7.726;2023-04-01T01:58:45;96839.91;;;1.77;89.18
58467;BME280;44255;49.244;7.726;2023-04-01T02:01:15;96840.44;;;1.99;89.59
58467;BME280;44255;49.244;7.726;2023-04-01T02:03:42;96848.66;;;1.79;89.79
58467;BME280;44255;49.244;7.726;2023-04-01T02:06:11;96841.56;;;1.94;89.16
58467;BME280;44255;49.244;7.726;2023-04-01T02:08:45;96845.38;;;1.74;89.85
58467;BME280;44255;49.244;7.726;2023-04-01T02:11:13;96840.19;;;1.57;92.02
58467;BME280;44255;49.244;7.726;2023-04-01T02:13:52;96839.44;;;1.38;91.95
58467;BME280;44255;49.244;7.726;2023-04-01T02:16:23;96842.94;;;1.39;94.36
58467;BME280;44255;49.244;7.726;2023-04-01T02:18:52;96829.53;;;1.42;92.58
58467;BME280;44255;49.244;7.726;2023-04-01T02:21:20;96831.06;;;1.46;93.35
58467;BME280;44255;49.244;7.726;2023-04-01T02:23:46;96824.94;;;1.60;93.25
58467;BME280;44255;49.244;7.726;2023-04-01T02:26:12;96829.78;;;1.37;91.32
58467;BME280;44255;49.244;7.726;2023-04-01T02:28:40;96835.25;;;1.34;91.85
58467;BME280;44255;49.244;7.726;2023-04-01T02:31:09;96826.25;;;1.37;92.63
58467;BME280;44255;49.244;7.726;2023-04-01T02:33:35;96820.00;;;1.54;94.20
58467;BME280;44255;49.244;7.726;2023-04-01T02:36:01;96835.50;;;1.30;94.65
58467;BME280;44255;49.244;7.726;2023-04-01T02:38:27;96825.47;;;1.35;95.90
58467;BME280;44255;49.244;7.726;2023-04-01T02:41:00;96820.00;;;1.38;95.89
58467;BME280;44255;49.244;7.726;2023-04-01T02:43:26;96822.47;;;1.41;94.07
58467;BME280;44255;49.244;7.726;2023-04-01T02:45:51;96819.00;;;1.71;92.51
58467;BME280;44255;49.244;7.726;2023-04-01T02:48:17;96835.34;;;1.33;93.03
58467;BME280;44255;49.244;7.726;2023-04-01T02:50:42;96815.13;;;1.46;92.29
58467;BME280;44255;49.244;7.726;2023-04-01T02:53:07;96821.38;;;1.45;92.44
58467;BME280;44255;49.244;7.726;2023-04-01T02:55:33;96817.09;;;1.73;92.09
58467;BME280;44255;49.244;7.726;2023-04-01T02:57:58;96817.44;;;1.36;91.55
58467;BME280;44255;49.244;7.726;2023-04-01T03:00:24;96825.59;;;1.33;92.78
58467;BME280;44255;49.244;7.726;2023-04-01T03:02:50;96817.16;;;1.57;91.83
58467;BME280;44255;49.244;7.726;2023-04-01T03:05:15;96816.06;;;1.45;93.11
58467;BME280;44255;49.244;7.726;2023-04-01T03:07:40;96817.00;;;1.44;93.18
58467;BME280;44255;49.244;7.726;2023-04-01T03:10:06;96825.41;;;1.20;96.46
58467;BME280;44255;49.244;7.726;2023-04-01T03:12:32;96809.47;;;1.36;96.87
58467;BME280;44255;49.244;7.726;2023-04-01T03:14:57;96820.63;;;1.11;95.25
58467;BME280;44255;49.244;7.726;2023-04-01T03:17:22;96813.41;;;1.29;94.46
58467;BME280;44255;49.244;7.726;2023-04-01T03:19:48;96818.03;;;1.09;93.84
58467;BME280;44255;49.244;7.726;2023-04-01T03:22:13;96830.78;;;1.35;94.14
58467;BME280;44255;49.244;7.726;2023-04-01T03:24:38;96820.94;;;1.53;91.97
58467;BME280;44255;49.244;7.726;2023-04-01T03:27:04;96826.56;;;1.47;91.62
58467;BME280;44255;49.244;7.726;2023-04-01T03:29:29;96813.56;;;1.58;91.66
58467;BME280;44255;49.244;7.726;2023-04-01T03:31:54;96819.19;;;1.68;90.25
58467;BME280;44255;49.244;7.726;2023-04-01T03:34:23;96811.84;;;1.41;90.73
58467;BME280;44255;49.244;7.726;2023-04-01T03:36:48;96833.69;;;0.98;92.43
58467;BME280;44255;49.244;7.726;2023-04-01T03:39:13;96817.16;;;1.57;91.94
58467;BME280;44255;49.244;7.726;2023-04-01T03:41:38;96825.38;;;1.52;90.28
58467;BME280;44255;49.244;7.726;2023-04-01T03:44:04;96827.78;;;1.41;88.33
58467;BME280;44255;49.244;7.726;2023-04-01T03:46:29;96816.50;;;1.37;90.89
58467;BME280;44255;49.244;7.726;2023-04-01T03:48:55;96808.63;;;1.66;89.05
58467;BME280;44255;49.244;7.726;2023-04-01T03:51:20;96822.97;;;1.48;89.02
58467;BME280;44255;49.244;7.726;2023-04-01T03:53:45;96823.25;;;1.43;88.61
58467;BME280;44255;49.244;7.726;2023-04-01T03:56:11;96806.16;;;1.63;87.37
58467;BME280;44255;49.244;7.726;2023-04-01T03:58:37;96808.81;;;1.63;88.26
58467;BME280;44255;49.244;7.726;2023-04-01T04:01:16;96814.34;;;1.28;89.79
58467;BME280;44255;49.244;7.726;2023-04-01T04:03:42;96815.44;;;1.40;87.87
58467;BME280;44255;49.244;7.726;2023-04-01T04:06:16;96812.72;;;1.42;87.69
58467;BME280;44255;49.244;7.726;2023-04-01T04:08:42;96795.25;;;1.99;85.95
58467;BME280;44255;49.244;7.726;2023-04-01T04:11:08;96794.06;;;2.19;84.25
58467;BME280;44255;49.244;7.726;2023-04-01T04:13:33;96774.94;;;1.98;85.03
58467;BME280;44255;49.244;7.726;2023-04-01T04:15:58;96806.16;;;1.79;85.14
58467;BME280;44255;49.244;7.726;2023-04-01T04:18:24;96799.47;;;2.03;86.93
58467;BME280;44255;49.244;7.726;2023-04-01T04:20:49;96811.91;;;1.72;86.32
58467;BME280;44255;49.244;7.726;2023-04-01T04:23:16;96804.69;;;1.43;92.16
58467;BME280;44255;49.244;7.726;2023-04-01T04:25:53;96810.91;;;1.89;87.77
58467;BME280;44255;49.244;7.726;2023-04-01T04:28:18;96810.97;;;1.73;88.62
58467;BME280;44255;49.244;7.726;2023-04-01T04:30:43;96800.00;;;1.63;89.73
58467;BME280;44255;49.244;7.726;2023-04-01T04:33:09;96801.63;;;1.65;89.90
58467;BME280;44255;49.244;7.726;2023-04-01T04:35:34;96813.59;;;1.42;92.80
58467;BME280;44255;49.244;7.726;2023-04-01T04:37:59;96811.78;;;1.10;95.13
58467;BME280;44255;49.244;7.726;2023-04-01T04:40:25;96808.88;;;0.83;97.93
58467;BME280;44255;49.244;7.726;2023-04-01T04:42:50;96814.81;;;1.04;97.84
58467;BME280;44255;49.244;7.726;2023-04-01T04:45:15;96810.97;;;1.10;96.26
58467;BME280;44255;49.244;7.726;2023-04-01T04:47:40;96806.91;;;1.03;95.28
58467;BME280;44255;49.244;7.726;2023-04-01T04:50:06;96805.47;;;0.81;97.66
58467;BME280;44255;49.244;7.726;2023-04-01T04:52:32;96807.59;;;1.06;97.09
58467;BME280;44255;49.244;7.726;2023-04-01T04:54:57;96804.63;;;0.96;96.05
58467;BME280;44255;49.244;7.726;2023-04-01T04:57:22;96804.53;;;1.14;95.89
58467;BME280;44255;49.244;7.726;2023-04-01T04:59:47;96810.63;;;1.00;96.51
58467;BME280;44255;49.244;7.726;2023-04-01T05:02:13;96801.97;;;1.29;96.71
58467;BME280;44255;49.244;7.726;2023-04-01T05:04:38;96813.41;;;1.29;96.37
58467;BME280;44255;49.244;7.726;2023-04-01T05:07:03;96802.81;;;0.97;97.23
58467;BME280;44255;49.244;7.726;2023-04-01T05:09:29;96806.91;;;1.51;92.19
58467;BME280;44255;49.244;7.726;2023-04-01T05:11:54;96814.47;;;0.94;97.16
58467;BME280;44255;49.244;7.726;2023-04-01T05:14:20;96808.53;;;0.89;99.30
58467;BME280;44255;49.244;7.726;2023-04-01T05:16:45;96801.25;;;1.25;97.46
58467;BME280;44255;49.244;7.726;2023-04-01T05:19:10;96813.69;;;0.92;96.65
58467;BME280;44255;49.244;7.726;2023-04-01T05:21:36;96815.06;;;1.00;97.43
58467;BME280;44255;49.244;7.726;2023-04-01T05:24:01;96790.47;;;1.44;96.07
58467;BME280;44255;49.244;7.726;2023-04-01T05:26:26;96813.25;;;1.16;95.15
58467;BME280;44255;49.244;7.726;2023-04-01T05:28:51;96807.84;;;1.34;94.79
58467;BME280;44255;49.244;7.726;2023-04-01T05:31:17;96799.13;;;1.32;95.30
58467;BME280;44255;49.244;7.726;2023-04-01T05:33:42;96805.97;;;1.04;96.18
58467;BME280;44255;49.244;7.726;2023-04-01T05:36:15;96805.56;;;1.28;94.70
58467;BME280;44255;49.244;7.726;2023-04-01T05:38:41;96798.34;;;1.14;95.28
58467;BME280;44255;49.244;7.726;2023-04-01T05:41:07;96802.28;;;1.22;96.95
58467;BME280;44255;49.244;7.726;2023-04-01T05:43:35;96804.00;;;1.07;96.07
58467;BME280;44255;49.244;7.726;2023-04-01T05:46:01;96802.66;;;1.00;95.24
58467;BME280;44255;49.244;7.726;2023-04-01T05:48:26;96798.72;;;1.07;95.89
58467;BME280;44255;49.244;7.726;2023-04-01T05:50:51;96797.25;;;0.86;95.89
58467;BME280;44255;49.244;7.726;2023-04-01T05:53:16;96793.06;;;0.98;95.23
58467;BME280;44255;49.244;7.726;2023-04-01T05:55:42;96793.91;;;1.14;96.57
58467;BME280;44255;49.244;7.726;2023-04-01T05:58:07;96792.88;;;1.01;96.24
58467;BME280;44255;49.244;7.726;2023-04-01T06:00:32;96789.63;;;1.11;95.41
58467;BME280;44255;49.244;7.726;2023-04-01T06:02:59;96794.28;;;1.08;95.18
58467;BME280;44255;49.244;7.726;2023-04-01T06:05:28;96794.94;;;1.11;94.73
58467;BME280;44255;49.244;7.726;2023-04-01T06:08:05;96797.91;;;1.21;93.94
58467;BME280;44255;49.244;7.726;2023-04-01T06:10:47;96777.13;;;1.60;92.84
58467;BME280;44255;49.244;7.726;2023-04-01T06:15:49;96778.09;;;0.96;94.61
58467;BME280;44255;49.244;7.726;2023-04-01T06:22:06;96778.69;;;1.18;94.29
58467;BME280;44255;49.244;7.726;2023-04-01T06:27:53;96782.28;;;1.01;95.35
58467;BME280;44255;49.244;7.726;2023-04-01T06:30:37;96782.94;;;1.20;96.11
58467;BME280;44255;49.244;7.726;2023-04-01T06:38:55;96797.66;;;0.94;99.41
58467;BME280;44255;49.244;7.726;2023-04-01T06:46:45;96806.16;;;0.85;100.00
58467;BME280;44255;49.244;7.726;2023-04-01T06:55:17;96805.88;;;0.89;98.65
58467;BME280;44255;49.244;7.726;2023-04-01T06:57:48;96801.88;;;1.14;100.00
58467;BME280;44255;49.244;7.726;2023-04-01T07:00:21;96802.91;;;0.95;100.00
58467;BME280;44255;49.244;7.726;2023-04-01T07:05:34;96792.88;;;1.33;99.28
58467;BME280;44255;49.244;7.726;2023-04-01T07:08:13;96784.88;;;1.49;98.97
58467;BME280;44255;49.244;7.726;2023-04-01T07:10:53;96781.25;;;1.03;99.11
58467;BME280;44255;49.244;7.726;2023-04-01T07:13:27;96780.72;;;1.13;99.92
58467;BME280;44255;49.244;7.726;2023-04-01T07:15:58;96790.66;;;1.09;100.00
58467;BME280;44255;49.244;7.726;2023-04-01T07:18:34;96780.06;;;1.09;100.00
58467;BME280;44255;49.244;7.726;2023-04-01T07:21:02;96780.44;;;1.49;98.61
58467;BME280;44255;49.244;7.726;2023-04-01T07:23:39;96771.81;;;1.30;98.96
58467;BME280;44255;49.244;7.726;2023-04-01T07:26:16;96785.84;;;1.32;99.58
58467;BME280;44255;49.244;7.726;2023-04-01T07:28:42;96788.91;;;1.40;100.00
58467;BME280;44255;49.244;7.726;2023-04-01T07:31:39;96795.25;;;1.21;100.00
58467;BME280;44255;49.244;7.726;2023-04-01T07:34:02;96800.41;;;1.41;100.00
58467;BME280;44255;49.244;7.726;2023-04-01T07:36:39;96787.03;;;1.42;100.00
58467;BME280;44255;49.244;7.726;2023-04-01T07:39:38;96807.53;;;1.08;100.00
58467;BME280;44255;49.244;7.726;2023-04-01T07:51:40;96819.75;;;1.10;100.00
58467;BME280;44255;49.244;7.726;2023-04-01T07:56:55;96812.31;;;1.17;100.00
58467;BME280;44255;49.244;7.726;2023-04-01T07:59:39;96809.66;;;1.33;100.00
58467;BME280;44255;49.244;7.726;2023-04-01T08:07:39;96819.41;;;1.33;100.00
58467;BME280;44255;49.244;7.726;2023-04-01T08:10:33;96828.06;;;1.20;100.00
58467;BME280;44255;49.244;7.726;2023-04-01T08:15:40;96829.00;;;1.19;100.00
58467;BME280;44255;49.244;7.726;2023-04-01T08:18:20;96826.09;;;1.24;100.00
58467;BME280;44255;49.244;7.726;2023-04-01T08:20:51;96831.75;;;1.18;100.00
58467;BME280;44255;49.244;7.726;2023-04-01T08:23:30;96836.34;;;1.46;100.00
58467;BME280;44255;49.244;7.726;2023-04-01T08:26:18;96836.69;;;1.40;100.00
58467;BME280;44255;49.244;7.726;2023-04-01T08:28:59;96851.16;;;1.18;100.00
58467;BME280;44255;49.244;7.726;2023-04-01T08:34:01;96842.88;;;1.24;100.00
58467;BME280;44255;49.244;7.726;2023-04-01T08:36:36;96842.06;;;1.54;100.00
58467;BME280;44255;49.244;7.726;2023-04-01T08:39:44;96844.34;;;1.14;100.00
58467;BME280;44255;49.244;7.726;2023-04-01T08:45:07;96847.25;;;1.25;100.00
58467;BME280;44255;49.244;7.726;2023-04-01T08:50:45;96838.06;;;1.31;100.00
58467;BME280;44255;49.244;7.726;2023-04-01T08:56:14;96843.19;;;1.50;100.00
58467;BME280;44255;49.244;7.726;2023-04-01T09:07:40;96852.81;;;3.03;92.85
58467;BME280;44255;49.244;7.726;2023-04-01T09:10:19;96862.88;;;1.62;100.00
58467;BME280;44255;49.244;7.726;2023-04-01T09:12:55;96861.16;;;1.77;100.00
58467;BME280;44255;49.244;7.726;2023-04-01T09:18:15;96867.00;;;1.99;100.00
58467;BME280;44255;49.244;7.726;2023-04-01T09:21:22;96871.81;;;1.92;100.00
58467;BME280;44255;49.244;7.726;2023-04-01T09:24:19;96858.28;;;1.96;100.00
58467;BME280;44255;49.244;7.726;2023-04-01T09:32:48;96869.97;;;2.08;100.00
58467;BME280;44255;49.244;7.726;2023-04-01T09:35:23;96866.94;;;2.00;100.00
58467;BME280;44255;49.244;7.726;2023-04-01T09:38:17;96873.59;;;4.22;100.00
58467;BME280;44255;49.244;7.726;2023-04-01T09:40:58;96878.66;;;2.72;98.47
58467;BME280;44255;49.244;7.726;2023-04-01T09:43:45;96873.03;;;3.20;97.83
58467;BME280;44255;49.244;7.726;2023-04-01T09:46:26;96879.31;;;1.85;100.00
58467;BME280;44255;49.244;7.726;2023-04-01T09:57:48;96884.38;;;2.65;99.00
58467;BME280;44255;49.244;7.726;2023-04-01T10:03:40;96889.03;;;2.31;100.00
58467;BME280;44255;49.244;7.726;2023-04-01T10:09:45;96897.78;;;2.33;100.00
58467;BME280;44255;49.244;7.726;2023-04-01T10:12:41;96886.16;;;2.50;100.00
58467;BME280;44255;49.244;7.726;2023-04-01T10:27:03;96906.13;;;2.27;100.00
58467;BME280;44255;49.244;7.726;2023-04-01T10:36:01;96908.03;;;2.39;100.00
58467;BME280;44255;49.244;7.726;2023-04-01T10:55:37;96915.56;;;2.17;100.00
58467;BME280;44255;49.244;7.726;2023-04-01T10:58:16;96922.59;;;2.18;100.00
58467;BME280;44255;49.244;7.726;2023-04-01T11:06:47;96923.78;;;2.28;100.00
58467;BME280;44255;49.244;7.726;2023-04-01T11:23:27;96917.75;;;2.41;100.00
58467;BME280;44255;49.244;7.726;2023-04-01T11:31:29;96929.16;;;2.43;100.00
58467;BME280;44255;49.244;7.726;2023-04-01T11:34:19;96926.44;;;2.28;100.00
58467;BME280;44255;49.244;7.726;2023-04-01T11:44:39;96927.09;;;2.32;100.00
58467;BME280;44255;49.244;7.726;2023-04-01T11:52:47;96944.38;;;2.55;100.00
58467;BME280;44255;49.244;7.726;2023-04-01T11:58:28;96948.56;;;2.59;100.00
58467;BME280;44255;49.244;7.726;2023-04-01T12:01:30;96944.97;;;2.60;100.00
58467;BME280;44255;49.244;7.726;2023-04-01T12:07:44;96946.97;;;2.10;100.00
58467;BME280;44255;49.244;7.726;2023-04-01T12:10:19;96957.56;;;2.26;100.00
58467;BME280;44255;49.244;7.726;2023-04-01T12:18:21;96966.84;;;2.19;100.00
58467;BME280;44255;49.244;7.726;2023-04-01T12:20:57;96969.00;;;3.33;98.92
58467;BME280;44255;49.244;7.726;2023-04-01T12:24:03;96969.34;;;3.27;97.16
58467;BME280;44255;49.244;7.726;2023-04-01T12:26:56;96977.66;;;2.77;99.62
58467;BME280;44255;49.244;7.726;2023-04-01T12:32:31;96963.72;;;2.73;100.00
58467;BME280;44255;49.244;7.726;2023-04-01T12:35:14;96978.56;;;2.47;100.00
58467;BME280;44255;49.244;7.726;2023-04-01T12:38:08;96973.00;;;2.66;100.00
58467;BME280;44255;49.244;7.726;2023-04-01T12:54:45;96990.22;;;2.44;100.00
58467;BME280;44255;49.244;7.726;2023-04-01T12:57:42;96988.75;;;3.29;97.39
58467;BME280;44255;49.244;7.726;2023-04-01T13:03:17;97000.50;;;2.81;95.43
58467;BME280;44255;49.244;7.726;2023-04-01T13:06:10;96996.94;;;2.97;99.69
58467;BME280;44255;49.244;7.726;2023-04-01T13:11:15;97007.03;;;2.29;100.00
58467;BME280;44255;49.244;7.726;2023-04-01T13:17:00;96995.28;;;2.49;100.00
58467;BME280;44255;49.244;7.726;2023-04-01T13:19:53;97013.31;;;2.74;100.00
58467;BME280;44255;49.244;7.726;2023-04-01T13:25:18;97007.00;;;2.61;100.00
58467;BME280;44255;49.244;7.726;2023-04-01T13:27:56;97012.72;;;2.69;100.00
58467;BME280;44255;49.244;7.726;2023-04-01T13:44:22;97023.50;;;2.35;100.00
58467;BME280;44255;49.244;7.726;2023-04-01T13:57:53;97026.31;;;2.48;100.00
58467;BME280;44255;49.244;7.726;2023-04-01T14:00:46;97025.13;;;2.54;100.00
58467;BME280;44255;49.244;7.726;2023-04-01T14:03:24;97040.75;;;2.44;100.00
58467;BME280;44255;49.244;7.726;2023-04-01T14:05:56;97048.88;;;2.57;100.00
58467;BME280;44255;49.244;7.726;2023-04-01T14:11:31;97046.28;;;2.39;100.00
58467;BME280;44255;49.244;7.726;2023-04-01T14:14:14;97038.66;;;2.65;100.00
58467;BME280;44255;49.244;7.726;2023-04-01T14:25:48;97043.06;;;2.34;99.79
58467;BME280;44255;49.244;7.726;2023-04-01T14:34:22;97052.22;;;2.29;100.00
58467;BME280;44255;49.244;7.726;2023-04-01T14:37:01;97060.13;;;2.14;100.00
58467;BME280;44255;49.244;7.726;2023-04-01T14:45:29;97051.28;;;2.30;100.00
58467;BME280;44255;49.244;7.726;2023-04-01T14:50:41;97049.22;;;2.35;100.00
58467;BME280;44255;49.244;7.726;2023-04-01T14:58:22;97077.44;;;2.05;100.00
58467;BME280;44255;49.244;7.726;2023-04-01T15:03:40;97072.72;;;2.27;100.00
58467;BME280;44255;49.244;7.726;2023-04-01T15:11:36;97075.66;;;2.38;100.00
58467;BME280;44255;49.244;7.726;2023-04-01T15:17:17;97070.22;;;2.39;100.00
58467;BME280;44255;49.244;7.726;2023-04-01T15:27:32;97100.16;;;2.11;100.00
58467;BME280;44255;49.244;7.726;2023-04-01T15:33:04;97097.50;;;2.11;100.00
58467;BME280;44255;49.244;7.726;2023-04-01T15:38:34;97094.75;;;1.96;100.00
58467;BME280;44255;49.244;7.726;2023-04-01T15:41:12;97102.22;;;2.06;100.00
58467;BME280;44255;49.244;7.726;2023-04-01T15:43:44;97103.84;;;2.08;100.00
58467;BME280;44255;49.244;7.726;2023-04-01T15:52:06;97095.38;;;2.18;99.74
58467;BME280;44255;49.244;7.726;2023-04-01T15:55:01;97125.28;;;2.05;98.77
58467;BME280;44255;49.244;7.726;2023-04-01T16:03:46;97109.78;;;2.14;96.32
58467;BME280;44255;49.244;7.726;2023-04-01T16:14:38;97138.75;;;1.68;98.64
58467;BME280;44255;49.244;7.726;2023-04-01T16:22:39;97142.91;;;1.90;100.00
58467;BME280;44255;49.244;7.726;2023-04-01T16:25:33;97144.97;;;1.85;99.34
58467;BME280;44255;49.244;7.726;2023-04-01T16:28:31;97150.81;;;1.41;100.00
58467;BME280;44255;49.244;7.726;2023-04-01T16:30:59;97156.13;;;1.41;100.00
58467;BME280;44255;49.244;7.726;2023-04-01T16:33:44;97149.81;;;1.43;100.00
58467;BME280;44255;49.244;7.726;2023-04-01T16:41:41;97147.66;;;2.01;97.30
58467;BME280;44255;49.244;7.726;2023-04-01T16:44:26;97157.91;;;1.22;100.00
58467;BME280;44255;49.244;7.726;2023-04-01T16:46:54;97162.16;;;1.44;100.00
58467;BME280;44255;49.244;7.726;2023-04-01T16:49:32;97163.84;;;1.45;100.00
58467;BME280;44255;49.244;7.726;2023-04-01T16:52:12;97153.22;;;1.96;98.58
58467;BME280;44255;49.244;7.726;2023-04-01T16:54:58;97155.19;;;1.75;97.68
58467;BME280;44255;49.244;7.726;2023-04-01T16:57:28;97147.53;;;1.87;97.67
58467;BME280;44255;49.244;7.726;2023-04-01T17:00:09;97149.59;;;1.98;98.39
58467;BME280;44255;49.244;7.726;2023-04-01T17:02:49;97158.75;;;1.58;100.00
58467;BME280;44255;49.244;7.726;2023-04-01T17:05:16;97149.66;;;1.29;100.00
58467;BME280;44255;49.244;7.726;2023-04-01T17:08:07;97149.94;;;1.40;100.00
58467;BME280;44255;49.244;7.726;2023-04-01T17:13:31;97155.50;;;1.35;100.00
58467;BME280;44255;49.244;7.726;2023-04-01T17:19:05;97148.31;;;1.37;100.00
58467;BME280;44255;49.244;7.726;2023-04-01T17:27:18;97171.19;;;1.40;100.00
58467;BME280;44255;49.244;7.726;2023-04-01T17:30:17;97166.03;;;1.37;99.85
58467;BME280;44255;49.244;7.726;2023-04-01T17:35:53;97169.00;;;1.31;100.00
58467;BME280;44255;49.244;7.726;2023-04-01T17:43:52;97177.91;;;1.65;99.26
58467;BME280;44255;49.244;7.726;2023-04-01T17:52:27;97185.56;;;1.36;98.69
58467;BME280;44255;49.244;7.726;2023-04-01T17:57:55;97196.16;;;1.36;99.58
58467;BME280;44255;49.244;7.726;2023-04-01T18:00:35;97210.22;;;1.38;98.28
58467;BME280;44255;49.244;7.726;2023-04-01T18:06:17;97218.81;;;1.08;99.35
58467;BME280;44255;49.244;7.726;2023-04-01T18:14:35;97223.50;;;1.38;97.75
58467;BME280;44255;49.244;7.726;2023-04-01T18:17:21;97224.13;;;1.25;97.45
58467;BME280;44255;49.244;7.726;2023-04-01T18:22:22;97229.19;;;1.48;97.22
58467;BME280;44255;49.244;7.726;2023-04-01T18:24:59;97229.69;;;1.56;97.15
58467;BME280;44255;49.244;7.726;2023-04-01T18:27:45;97242.75;;;1.61;95.55
58467;BME280;44255;49.244;7.726;2023-04-01T18:32:58;97245.66;;;1.37;94.64
58467;BME280;44255;49.244;7.726;2023-04-01T18:38:36;97254.59;;;1.53;95.35
58467;BME280;44255;49.244;7.726;2023-04-01T18:41:28;97266.16;;;1.52;95.14
58467;BME280;44255;49.244;7.726;2023-04-01T18:44:04;97273.28;;;1.52;95.23
58467;BME280;44255;49.244;7.726;2023-04-01T18:46:50;97271.06;;;1.43;96.01
58467;BME280;44255;49.244;7.726;2023-04-01T18:49:59;97271.38;;;1.36;96.28
58467;BME280;44255;49.244;7.726;2023-04-01T18:52:40;97278.72;;;1.49;95.24
58467;BME280;44255;49.244;7.726;2023-04-01T18:57:47;97290.19;;;1.13;96.99
58467;BME280;44255;49.244;7.726;2023-04-01T19:00:20;97292.53;;;1.38;96.44
58467;BME280;44255;49.244;7.726;2023-04-01T19:02:58;97293.72;;;1.50;95.82
58467;BME280;44255;49.244;7.726;2023-04-01T19:05:34;97289.34;;;1.49;94.90
58467;BME280;44255;49.244;7.726;2023-04-01T19:11:17;97297.84;;;1.56;95.35
58467;BME280;44255;49.244;7.726;2023-04-01T19:14:00;97298.94;;;1.34;94.55
58467;BME280;44255;49.244;7.726;2023-04-01T19:19:37;97306.31;;;1.27;96.16
58467;BME280;44255;49.244;7.726;2023-04-01T19:22:27;97294.91;;;1.44;95.01
58467;BME280;44255;49.244;7.726;2023-04-01T19:28:19;97308.38;;;1.39;96.43
58467;BME280;44255;49.244;7.726;2023-04-01T19:30:54;97310.91;;;1.60;95.94
58467;BME280;44255;49.244;7.726;2023-04-01T19:34:22;97315.66;;;1.53;96.18
58467;BME280;44255;49.244;7.726;2023-04-01T19:36:39;97312.78;;;1.58;94.91
58467;BME280;44255;49.244;7.726;2023-04-01T19:39:36;97319.41;;;1.49;93.74
58467;BME280;44255;49.244;7.726;2023-04-01T19:42:31;97309.56;;;1.51;95.25
58467;BME280;44255;49.244;7.726;2023-04-01T19:45:26;97316.59;;;1.52;94.65
58467;BME280;44255;49.244;7.726;2023-04-01T19:53:21;97326.94;;;1.22;95.33
58467;BME280;44255;49.244;7.726;2023-04-01T19:56:11;97324.19;;;1.23;95.97
58467;BME280;44255;49.244;7.726;2023-04-01T19:58:47;97329.28;;;1.28;96.51
58467;BME280;44255;49.244;7.726;2023-04-01T20:01:22;97331.56;;;1.36;96.14
58467;BME280;44255;49.244;7.726;2023-04-01T20:04:08;97336.72;;;1.39;95.11
58467;BME280;44255;49.244;7.726;2023-04-01T20:07:19;97340.06;;;1.25;93.91
58467;BME280;44255;49.244;7.726;2023-04-01T20:12:19;97338.91;;;1.31;94.26
58467;BME280;44255;49.244;7.726;2023-04-01T20:14:49;97332.59;;;1.33;93.95
58467;BME280;44255;49.244;7.726;2023-04-01T20:17:32;97343.06;;;1.17;95.40
58467;BME280;44255;49.244;7.726;2023-04-01T20:25:25;97344.00;;;1.35;94.08
58467;BME280;44255;49.244;7.726;2023-04-01T20:27:56;97346.66;;;1.16;96.20
58467;BME280;44255;49.244;7.726;2023-04-01T20:30:36;97341.25;;;1.91;92.49
58467;BME280;44255;49.244;7.726;2023-04-01T20:35:51;97350.75;;;1.04;96.36
58467;BME280;44255;49.244;7.726;2023-04-01T20:42:18;97353.91;;;0.93;97.31